Time;durP1;ratioP1;P1;durP2;ratioP2;P2;SDS_P1;SDS_P2;PMS_P1;PMS_P2;Temp;Humidity;BMP_temperature;BMP_pressure;BME280_temperature;BME280_humidity;BME280_pressure;Samples;Min_cycle;Max_cycle;Signal;HPM_P1;HPM_P2
2021/01/25 00:01:05;;;;;;;2.90;2.28;;;2.40;54.20;;;;;;5016333;28;20208;-78
2021/01/25 00:03:32;;;;;;;3.50;2.38;;;2.40;54.70;;;;;;5016126;28;20230;-76
2021/01/25 00:05:58;;;;;;;4.30;2.60;;;2.40;55.10;;;;;;5015949;28;20203;-77
2021/01/25 00:08:25;;;;;;;3.42;2.45;;;2.30;54.30;;;;;;5017637;28;20303;-76
2021/01/25 00:10:51;;;;;;;3.10;2.80;;;2.30;53.20;;;;;;5019460;28;20208;-76
2021/01/25 00:13:18;;;;;;;2.88;2.25;;;2.30;53.80;;;;;;5017773;28;20208;-79
2021/01/25 00:15:47;;;;;;;4.00;2.95;;;2.30;53.90;;;;;;5017823;28;20216;-77
2021/01/25 00:18:14;;;;;;;3.08;2.58;;;2.20;53.90;;;;;;5018872;28;20216;-76
2021/01/25 00:20:41;;;;;;;3.88;3.35;;;2.00;54.70;;;;;;5018080;28;20208;-77
2021/01/25 00:23:07;;;;;;;5.15;3.80;;;2.00;55.00;;;;;;5019349;28;20193;-77
2021/01/25 00:25:34;;;;;;;4.60;3.58;;;2.00;55.40;;;;;;5017666;28;20193;-77
2021/01/25 00:28:00;;;;;;;4.40;3.08;;;2.00;55.10;;;;;;5017798;28;20236;-76
2021/01/25 00:30:27;;;;;;;3.50;2.90;;;1.90;55.10;;;;;;5019108;28;20212;-76
2021/01/25 00:32:53;;;;;;;6.10;3.60;;;2.00;55.40;;;;;;5019774;28;20188;-76
2021/01/25 00:35:20;;;;;;;4.90;3.92;;;2.00;55.40;;;;;;5018931;28;20236;-76
2021/01/25 00:37:47;;;;;;;5.13;4.15;;;1.90;55.80;;;;;;5017908;28;20264;-78
2021/01/25 00:40:14;;;;;;;4.97;4.03;;;2.00;55.80;;;;;;5018075;28;20204;-79
2021/01/25 00:42:40;;;;;;;6.68;4.38;;;1.90;56.00;;;;;;5016393;28;20248;-79
2021/01/25 00:45:08;;;;;;;4.55;4.15;;;1.80;56.40;;;;;;5015440;28;20485;-78
2021/01/25 00:47:34;;;;;;;7.78;3.67;;;1.60;56.40;;;;;;5018022;28;20239;-75
2021/01/25 00:50:02;;;;;;;4.60;3.70;;;1.70;57.00;;;;;;5018241;28;20207;-77
2021/01/25 00:52:29;;;;;;;4.90;3.95;;;1.80;57.10;;;;;;5017445;28;20192;-77
2021/01/25 00:54:55;;;;;;;4.60;3.80;;;1.90;57.20;;;;;;5017606;28;20236;-77
2021/01/25 00:57:22;;;;;;;4.95;3.85;;;1.90;55.80;;;;;;5013374;28;20689;-77
2021/01/25 00:59:48;;;;;;;5.80;4.18;;;1.80;55.90;;;;;;5016131;28;20259;-76
2021/01/25 01:02:15;;;;;;;5.50;4.20;;;1.80;56.40;;;;;;5016432;28;20196;-76
2021/01/25 01:04:41;;;;;;;7.45;4.72;;;1.80;57.10;;;;;;5019212;28;20201;-75
2021/01/25 01:07:07;;;;;;;5.75;4.10;;;1.70;57.00;;;;;;5015785;28;20208;-79
2021/01/25 01:09:35;;;;;;;5.72;4.30;;;1.60;57.00;;;;;;5011907;28;20228;-78
2021/01/25 01:12:01;;;;;;;7.20;4.63;;;1.70;57.00;;;;;;5011942;28;20208;-78
2021/01/25 01:14:28;;;;;;;9.40;4.80;;;1.60;57.00;;;;;;5010740;28;20260;-77
2021/01/25 01:16:54;;;;;;;7.10;4.35;;;1.60;57.00;;;;;;5011669;28;20200;-78
2021/01/25 01:19:20;;;;;;;7.10;4.90;;;1.50;56.90;;;;;;5013247;28;20229;-77
2021/01/25 01:21:47;;;;;;;8.82;5.32;;;1.50;57.40;;;;;;5017754;28;20193;-76
2021/01/25 01:24:15;;;;;;;10.07;5.07;;;1.50;56.90;;;;;;5018508;28;20264;-77
2021/01/25 01:26:43;;;;;;;8.68;4.78;;;1.60;57.70;;;;;;5019089;28;20193;-77
2021/01/25 01:29:09;;;;;;;8.25;4.80;;;1.50;56.90;;;;;;5019247;28;20225;-76
2021/01/25 01:31:35;;;;;;;5.95;4.82;;;1.60;57.00;;;;;;5019068;28;20201;-74
2021/01/25 01:34:03;;;;;;;6.68;4.70;;;1.60;56.90;;;;;;5018933;28;20212;-76
2021/01/25 01:36:29;;;;;;;7.32;5.18;;;1.60;57.00;;;;;;5019401;28;20201;-76
2021/01/25 01:38:55;;;;;;;6.25;4.55;;;1.60;55.90;;;;;;5018994;28;20236;-77
2021/01/25 01:41:22;;;;;;;7.22;4.25;;;1.70;55.90;;;;;;5019096;28;20192;-77
2021/01/25 01:43:49;;;;;;;7.70;5.25;;;1.70;55.60;;;;;;5019510;28;20188;-78
2021/01/25 01:46:15;;;;;;;9.02;5.13;;;1.70;56.30;;;;;;5019163;28;20219;-76
2021/01/25 01:48:42;;;;;;;5.68;4.68;;;1.70;56.30;;;;;;5017033;28;20251;-77
2021/01/25 01:51:09;;;;;;;5.75;4.50;;;1.70;55.60;;;;;;5017049;28;20224;-75
2021/01/25 01:53:35;;;;;;;5.47;4.35;;;1.80;55.80;;;;;;5017613;28;20227;-75
2021/01/25 01:56:02;;;;;;;7.53;5.03;;;1.90;55.40;;;;;;5018011;28;20204;-76
2021/01/25 01:58:29;;;;;;;6.05;4.75;;;1.80;55.10;;;;;;5017567;28;20220;-76
2021/01/25 02:00:57;;;;;;;7.35;4.97;;;1.90;55.40;;;;;;5017229;28;20232;-78
2021/01/25 02:03:23;;;;;;;6.35;4.30;;;1.90;55.50;;;;;;5017045;28;20232;-77
2021/01/25 02:05:51;;;;;;;5.53;4.60;;;1.90;55.90;;;;;;5017229;28;20211;-77
2021/01/25 02:08:19;;;;;;;6.72;4.30;;;1.90;56.40;;;;;;5017809;28;20220;-77
2021/01/25 02:10:47;;;;;;;6.70;4.80;;;1.90;57.20;;;;;;5017863;28;20201;-76
2021/01/25 02:13:14;;;;;;;7.03;5.40;;;1.90;57.90;;;;;;5017622;28;20216;-76
2021/01/25 02:15:41;;;;;;;5.93;4.43;;;2.00;58.30;;;;;;5017529;28;20428;-76
2021/01/25 02:18:08;;;;;;;6.03;4.68;;;2.00;58.90;;;;;;5017675;28;20244;-76
2021/01/25 02:20:37;;;;;;;6.57;5.00;;;2.00;60.20;;;;;;5017371;28;20196;-77
2021/01/25 02:23:33;;;;;;;6.97;4.82;;;1.90;61.70;;;;;;5017918;28;20181;-76
2021/01/25 02:26:08;;;;;;;7.82;4.00;;;1.90;63.00;;;;;;4991480;28;20224;-77
2021/01/25 02:28:39;;;;;;;5.30;4.07;;;1.70;64.80;;;;;;5016550;28;20212;-77
2021/01/25 02:31:10;;;;;;;6.43;4.60;;;1.60;67.50;;;;;;5016695;28;20273;-77
2021/01/25 02:33:42;;;;;;;6.57;4.65;;;1.60;69.30;;;;;;5016276;28;20192;-78
2021/01/25 02:36:10;;;;;;;5.90;4.10;;;1.60;70.50;;;;;;5015787;28;20200;-79
2021/01/25 02:38:39;;;;;;;7.75;4.68;;;1.50;72.60;;;;;;5017096;28;20220;-77
2021/01/25 02:41:07;;;;;;;5.50;4.60;;;1.50;74.30;;;;;;5016195;28;20200;-77
2021/01/25 02:43:34;;;;;;;5.85;5.25;;;1.60;75.20;;;;;;5017116;28;20192;-78
2021/01/25 02:46:02;;;;;;;7.60;4.30;;;1.60;75.80;;;;;;5016382;28;20192;-76
2021/01/25 02:48:29;;;;;;;4.20;3.45;;;1.60;76.30;;;;;;5016562;28;20212;-77
2021/01/25 02:50:55;;;;;;;5.78;4.00;;;1.60;76.30;;;;;;5016474;28;20264;-78
2021/01/25 02:53:21;;;;;;;5.30;3.90;;;1.50;78.40;;;;;;5016025;28;20192;-77
2021/01/25 02:55:50;;;;;;;6.05;4.50;;;1.50;78.80;;;;;;5015029;28;20228;-78
2021/01/25 02:58:19;;;;;;;9.32;4.68;;;1.40;80.30;;;;;;5016786;28;20239;-76
2021/01/25 03:00:46;;;;;;;6.18;4.15;;;1.30;81.50;;;;;;5016251;28;20228;-77
2021/01/25 03:03:13;;;;;;;4.60;4.20;;;1.40;82.50;;;;;;5016522;28;20296;-76
2021/01/25 03:05:40;;;;;;;4.85;4.18;;;1.50;83.60;;;;;;5016613;28;20208;-77
2021/01/25 03:08:07;;;;;;;5.65;4.85;;;1.50;84.00;;;;;;5015667;28;20213;-77
2021/01/25 03:10:34;;;;;;;5.78;4.90;;;1.50;83.80;;;;;;5016046;28;20213;-79
2021/01/25 03:13:01;;;;;;;5.90;4.70;;;1.30;84.60;;;;;;5014579;28;20208;-75
2021/01/25 03:15:29;;;;;;;7.78;5.43;;;1.30;85.60;;;;;;5015247;28;20260;-78
2021/01/25 03:17:55;;;;;;;8.20;6.40;;;1.30;86.50;;;;;;5016676;28;20244;-77
2021/01/25 03:20:23;;;;;;;7.18;5.18;;;1.30;86.70;;;;;;5011439;28;20201;-79
2021/01/25 03:22:49;;;;;;;6.57;5.55;;;1.30;88.00;;;;;;4994015;28;20295;-79
2021/01/25 03:25:16;;;;;;;6.15;4.90;;;1.30;88.60;;;;;;5020327;23;20446;-79
2021/01/25 03:27:45;;;;;;;7.05;5.88;;;1.40;89.50;;;;;;5000615;28;20227;-80
2021/01/25 03:30:14;;;;;;;7.25;5.40;;;1.20;89.50;;;;;;5000068;28;20398;-79
2021/01/25 03:32:41;;;;;;;5.97;5.28;;;1.20;90.20;;;;;;4999722;28;20204;-79
2021/01/25 03:35:09;;;;;;;6.30;5.35;;;1.10;90.80;;;;;;5000172;28;20282;-80
2021/01/25 03:37:37;;;;;;;6.97;5.65;;;1.20;91.40;;;;;;5000682;28;20276;-80
2021/01/25 03:40:04;;;;;;;10.63;6.30;;;1.10;91.90;;;;;;5008587;28;20238;-80
2021/01/25 03:42:31;;;;;;;8.27;6.05;;;1.10;91.90;;;;;;5015934;28;20202;-79
2021/01/25 03:44:57;;;;;;;8.73;6.93;;;1.10;92.40;;;;;;5017219;28;20220;-79
2021/01/25 03:47:24;;;;;;;6.72;5.30;;;1.20;92.90;;;;;;5017498;28;20196;-81
2021/01/25 03:49:50;;;;;;;6.00;5.05;;;1.10;93.00;;;;;;5017099;28;20208;-80
2021/01/25 03:52:17;;;;;;;8.40;5.95;;;1.20;93.40;;;;;;5016937;28;20188;-81
2021/01/25 03:54:44;;;;;;;14.95;6.57;;;1.10;93.70;;;;;;5016753;28;20232;-80
2021/01/25 03:57:10;;;;;;;6.13;5.32;;;1.20;93.90;;;;;;5007083;28;20223;-79
2021/01/25 03:59:37;;;;;;;8.05;5.95;;;1.20;94.10;;;;;;5002161;28;20197;-80
2021/01/25 04:02:04;;;;;;;7.97;6.13;;;1.20;94.10;;;;;;5005980;28;20567;-80
2021/01/25 04:04:30;;;;;;;8.85;6.35;;;1.20;94.30;;;;;;5016653;28;20216;-79
2021/01/25 04:06:57;;;;;;;10.45;5.68;;;1.20;94.30;;;;;;5017421;28;20192;-80
2021/01/25 04:09:23;;;;;;;6.95;5.28;;;1.20;94.50;;;;;;5015550;28;20208;-79
2021/01/25 04:11:51;;;;;;;7.72;5.85;;;1.20;94.50;;;;;;4998710;28;20215;-81
2021/01/25 04:14:17;;;;;;;7.93;6.10;;;1.20;94.60;;;;;;5001872;28;20228;-80
2021/01/25 04:16:44;;;;;;;9.27;6.47;;;1.20;94.70;;;;;;5003181;28;20208;-80
2021/01/25 04:19:10;;;;;;;8.30;6.25;;;1.10;94.90;;;;;;5002596;28;20204;-79
2021/01/25 04:21:37;;;;;;;7.45;5.40;;;1.10;95.40;;;;;;5001395;28;20250;-79
2021/01/25 04:24:04;;;;;;;10.52;6.68;;;1.20;95.50;;;;;;5002936;28;20575;-80
2021/01/25 04:26:31;;;;;;;7.60;4.90;;;1.20;95.50;;;;;;5003355;28;20236;-79
2021/01/25 04:28:58;;;;;;;7.75;5.75;;;1.20;96.00;;;;;;5003197;28;20200;-80
2021/01/25 04:31:24;;;;;;;8.00;5.57;;;1.20;95.90;;;;;;5001235;28;20231;-79
2021/01/25 04:33:51;;;;;;;5.90;5.30;;;1.20;96.10;;;;;;5004821;28;20256;-80
2021/01/25 04:36:17;;;;;;;7.72;5.85;;;1.30;96.40;;;;;;5013713;28;20223;-80
2021/01/25 04:38:44;;;;;;;7.82;5.25;;;1.20;96.30;;;;;;5008122;28;20216;-79
2021/01/25 04:41:10;;;;;;;7.15;4.95;;;1.20;96.60;;;;;;5007431;28;20204;-80
2021/01/25 04:43:37;;;;;;;9.65;5.93;;;1.20;96.70;;;;;;5016523;28;20196;-81
2021/01/25 04:46:05;;;;;;;6.72;5.60;;;1.30;97.20;;;;;;5016426;28;20224;-80
2021/01/25 04:48:34;;;;;;;10.63;5.50;;;1.30;97.10;;;;;;5002273;28;20247;-80
2021/01/25 04:51:01;;;;;;;6.93;4.53;;;1.30;97.40;;;;;;5013990;28;20192;-80
2021/01/25 04:53:29;;;;;;;8.18;6.00;;;1.40;97.50;;;;;;5012698;28;20216;-81
2021/01/25 04:55:56;;;;;;;8.48;6.00;;;1.50;97.70;;;;;;5007042;28;20236;-80
2021/01/25 04:58:23;;;;;;;6.05;5.15;;;1.50;97.40;;;;;;5011588;28;20228;-80
2021/01/25 05:00:50;;;;;;;7.95;5.60;;;1.50;97.30;;;;;;5016263;28;20249;-80
2021/01/25 05:03:18;;;;;;;6.90;5.32;;;1.50;97.30;;;;;;5015527;28;20216;-79
2021/01/25 05:05:44;;;;;;;6.15;5.20;;;1.50;97.20;;;;;;5015397;28;20243;-80
2021/01/25 05:08:11;;;;;;;6.60;5.20;;;1.50;97.30;;;;;;5014625;28;20212;-81
2021/01/25 05:10:38;;;;;;;11.88;5.72;;;1.40;97.20;;;;;;5008584;28;20209;-80
2021/01/25 05:13:08;;;;;;;6.70;5.60;;;1.50;97.50;;;;;;5019489;28;20200;-81
2021/01/25 05:15:35;;;;;;;7.63;5.60;;;1.50;97.30;;;;;;5019861;28;20228;-80
2021/01/25 05:18:03;;;;;;;8.60;5.45;;;1.50;97.30;;;;;;5017978;28;20310;-79
2021/01/25 05:20:32;;;;;;;7.70;5.93;;;1.60;97.20;;;;;;5015978;28;20193;-81
2021/01/25 05:23:01;;;;;;;11.50;5.45;;;1.50;96.90;;;;;;4995511;28;20236;-81
2021/01/25 05:25:29;;;;;;;7.10;5.60;;;1.60;97.20;;;;;;5000584;28;20231;-80
2021/01/25 05:27:57;;;;;;;6.38;5.72;;;1.60;97.00;;;;;;5010986;28;20205;-78
2021/01/25 05:30:25;;;;;;;8.75;5.90;;;1.50;97.20;;;;;;5017957;28;20188;-79
2021/01/25 05:32:53;;;;;;;12.20;6.20;;;1.60;97.30;;;;;;5018319;28;20196;-81
2021/01/25 05:35:22;;;;;;;7.65;6.22;;;1.60;97.10;;;;;;5018842;28;20240;-81
2021/01/25 05:37:55;;;;;;;10.80;6.53;;;1.60;97.30;;;;;;5020589;28;20181;-79
2021/01/25 05:40:23;;;;;;;7.88;5.88;;;1.60;97.40;;;;;;5019598;28;20193;-78
2021/01/25 05:42:50;;;;;;;8.45;6.28;;;1.60;97.40;;;;;;5020912;28;20203;-80
2021/01/25 05:45:19;;;;;;;9.65;6.70;;;1.60;97.30;;;;;;5018469;28;20220;-79
2021/01/25 05:47:47;;;;;;;6.55;5.75;;;1.60;97.30;;;;;;5019978;28;20205;-79
2021/01/25 05:50:32;;;;;;;7.30;6.20;;;1.60;97.40;;;;;;5019892;28;20184;-79
2021/01/25 05:53:01;;;;;;;8.93;6.13;;;1.70;97.60;;;;;;5020978;28;20172;-79
2021/01/25 05:55:28;;;;;;;7.10;5.85;;;1.70;97.50;;;;;;5015923;28;20243;-78
2021/01/25 05:57:55;;;;;;;7.18;6.45;;;1.70;97.40;;;;;;5000758;28;20200;-80
2021/01/25 06:00:23;;;;;;;9.60;6.70;;;1.70;97.20;;;;;;4999850;28;20239;-79
2021/01/25 06:02:51;;;;;;;7.80;6.25;;;1.70;97.40;;;;;;4999218;28;20206;-80
2021/01/25 06:05:26;;;;;;;8.45;7.35;;;1.80;97.30;;;;;;4999853;28;20224;-81
2021/01/25 06:07:56;;;;;;;9.00;7.05;;;1.80;97.40;;;;;;4999154;28;20203;-79
2021/01/25 06:10:28;;;;;;;7.35;6.20;;;1.80;97.10;;;;;;4999427;28;20688;-80
2021/01/25 06:13:05;;;;;;;7.55;6.05;;;1.80;97.10;;;;;;4999634;28;20277;-81
2021/01/25 06:15:34;;;;;;;7.38;6.50;;;1.80;97.20;;;;;;4996850;28;20288;-79
2021/01/25 06:18:01;;;;;;;7.72;6.45;;;1.80;97.20;;;;;;4986970;28;20299;-80
2021/01/25 06:20:31;;;;;;;9.77;6.93;;;1.80;97.20;;;;;;5000011;28;20295;-80
2021/01/25 06:22:59;;;;;;;10.35;7.72;;;1.80;97.20;;;;;;5000805;28;20200;-80
2021/01/25 06:25:27;;;;;;;10.93;7.72;;;1.90;97.20;;;;;;5002684;28;20236;-80
2021/01/25 06:27:55;;;;;;;10.00;7.10;;;1.80;97.20;;;;;;5001607;28;20220;-80
2021/01/25 06:30:24;;;;;;;8.23;6.65;;;1.80;97.20;;;;;;5003744;28;20612;-79
2021/01/25 06:32:52;;;;;;;10.90;7.18;;;1.80;97.40;;;;;;5002556;28;20204;-80
2021/01/25 06:35:19;;;;;;;9.90;7.78;;;1.90;97.40;;;;;;5001734;28;20228;-81
2021/01/25 06:37:53;;;;;;;10.00;7.20;;;1.80;97.30;;;;;;4999769;28;20865;-80
2021/01/25 06:40:26;;;;;;;10.18;7.75;;;1.90;97.40;;;;;;5001204;28;20212;-78
2021/01/25 06:42:54;;;;;;;12.20;7.82;;;1.80;97.40;;;;;;4999501;28;20565;-79
2021/01/25 06:45:24;;;;;;;8.93;6.68;;;1.80;97.40;;;;;;4998111;28;20248;-79
2021/01/25 06:47:51;;;;;;;13.38;8.43;;;1.80;97.40;;;;;;4999454;28;20212;-77
2021/01/25 06:50:19;;;;;;;13.80;8.70;;;1.80;97.50;;;;;;5000671;28;20216;-78
2021/01/25 06:52:50;;;;;;;12.05;8.25;;;1.80;97.50;;;;;;5002372;28;20215;-78
2021/01/25 06:55:17;;;;;;;10.60;7.68;;;1.80;97.60;;;;;;4999235;28;20228;-79
2021/01/25 06:57:46;;;;;;;12.10;8.27;;;1.80;97.70;;;;;;4997226;28;20204;-78
2021/01/25 07:00:19;;;;;;;13.07;8.65;;;1.80;97.60;;;;;;5003130;28;20204;-80
2021/01/25 07:02:53;;;;;;;12.65;8.88;;;1.80;97.80;;;;;;5000602;28;20200;-81
2021/01/25 07:05:25;;;;;;;14.52;9.75;;;1.80;97.80;;;;;;4996422;28;20224;-79
2021/01/25 07:08:27;;;;;;;15.20;9.25;;;1.80;97.90;;;;;;5001402;28;20212;-80
2021/01/25 07:11:16;;;;;;;15.70;9.63;;;1.90;98.10;;;;;;5011028;28;20215;-77
2021/01/25 07:13:54;;;;;;;14.35;10.10;;;2.00;98.10;;;;;;5014179;28;21072;-77
2021/01/25 07:16:27;;;;;;;14.68;9.25;;;1.90;97.80;;;;;;5014927;28;20208;-81
2021/01/25 07:18:54;;;;;;;13.90;9.55;;;1.90;97.80;;;;;;5013607;28;20223;-80
2021/01/25 07:21:22;;;;;;;12.45;9.15;;;1.90;97.70;;;;;;5002287;28;20201;-77
2021/01/25 07:23:50;;;;;;;13.38;9.57;;;1.90;97.30;;;;;;5003055;28;20236;-79
2021/01/25 07:26:18;;;;;;;14.52;9.15;;;1.90;97.40;;;;;;5013558;28;20208;-79
2021/01/25 07:28:45;;;;;;;12.32;8.90;;;1.90;97.40;;;;;;5015417;28;20211;-80
2021/01/25 07:31:14;;;;;;;11.90;9.38;;;1.90;97.50;;;;;;5016151;28;20201;-79
2021/01/25 07:33:41;;;;;;;12.10;8.52;;;1.90;97.60;;;;;;5014699;28;20205;-77
2021/01/25 07:36:08;;;;;;;12.80;9.25;;;1.90;97.50;;;;;;5015153;28;20215;-77
2021/01/25 07:38:35;;;;;;;13.48;8.85;;;1.90;97.50;;;;;;5015379;28;20239;-79
2021/01/25 07:41:02;;;;;;;15.00;9.82;;;1.90;97.40;;;;;;5012840;28;20208;-77
2021/01/25 07:43:33;;;;;;;12.02;9.18;;;1.90;97.40;;;;;;5016814;28;20196;-78
2021/01/25 07:46:07;;;;;;;12.57;9.30;;;1.90;97.60;;;;;;5016631;28;20727;-77
2021/01/25 07:48:34;;;;;;;12.43;8.40;;;1.90;97.60;;;;;;5014561;28;20708;-78
2021/01/25 07:51:01;;;;;;;13.63;9.25;;;1.90;97.60;;;;;;5005541;28;20208;-80
2021/01/25 07:53:34;;;;;;;15.38;9.35;;;1.90;97.50;;;;;;5009178;28;20486;-79
2021/01/25 07:56:01;;;;;;;13.38;9.38;;;1.90;97.50;;;;;;5011182;28;20274;-76
2021/01/25 07:58:27;;;;;;;14.02;9.80;;;1.80;97.40;;;;;;5015396;28;20204;-77
2021/01/25 08:00:54;;;;;;;13.48;8.63;;;1.90;97.50;;;;;;5011066;28;20235;-77
2021/01/25 08:03:24;;;;;;;13.25;10.35;;;1.90;97.60;;;;;;5013574;28;20208;-77
2021/01/25 08:05:53;;;;;;;14.20;10.23;;;1.80;97.60;;;;;;5008391;28;20236;-78
2021/01/25 08:08:21;;;;;;;24.20;10.10;;;1.90;97.80;;;;;;4997015;28;20317;-77
2021/01/25 08:10:49;;;;;;;14.27;10.13;;;1.90;97.80;;;;;;5001886;28;20211;-76
2021/01/25 08:13:16;;;;;;;11.85;8.52;;;1.90;97.70;;;;;;5001923;28;20265;-77
2021/01/25 08:15:55;;;;;;;13.27;9.02;;;1.80;97.70;;;;;;5003886;28;20282;-77
2021/01/25 08:18:25;;;;;;;13.52;8.85;;;1.80;97.80;;;;;;5008548;28;20379;-78
2021/01/25 08:20:57;;;;;;;11.98;9.15;;;1.90;98.10;;;;;;5008841;28;20224;-77
2021/01/25 08:23:25;;;;;;;12.30;9.05;;;1.90;97.90;;;;;;5008470;28;20235;-78
2021/01/25 08:25:59;;;;;;;13.18;8.65;;;1.90;97.90;;;;;;5006468;28;20240;-76
2021/01/25 08:28:30;;;;;;;11.95;8.88;;;1.80;97.80;;;;;;4986842;28;20212;-78
2021/01/25 08:31:09;;;;;;;11.55;8.85;;;1.90;98.00;;;;;;5008549;28;20188;-77
2021/01/25 08:33:37;;;;;;;11.88;8.15;;;1.90;98.20;;;;;;5008411;28;20235;-78
2021/01/25 08:36:06;;;;;;;10.15;7.70;;;2.00;98.20;;;;;;5007668;28;20650;-78
2021/01/25 08:38:34;;;;;;;10.80;7.60;;;1.90;97.90;;;;;;5012328;28;20346;-76
2021/01/25 08:41:13;;;;;;;9.65;7.55;;;1.90;97.70;;;;;;5006860;28;20205;-77
2021/01/25 08:43:41;;;;;;;9.82;7.32;;;2.00;97.90;;;;;;5017168;28;20204;-76
2021/01/25 08:46:11;;;;;;;12.70;8.88;;;2.10;97.80;;;;;;4989263;28;20229;-77
2021/01/25 08:48:38;;;;;;;10.35;8.18;;;2.00;97.50;;;;;;4991605;28;20241;-77
2021/01/25 08:51:10;;;;;;;11.18;7.55;;;2.00;97.50;;;;;;5005815;28;20212;-76
2021/01/25 08:53:37;;;;;;;9.63;7.75;;;2.10;97.70;;;;;;5008086;28;20204;-79
2021/01/25 08:56:13;;;;;;;10.48;8.20;;;2.30;97.90;;;;;;4992354;28;20233;-77
2021/01/25 08:58:40;;;;;;;11.07;8.25;;;2.40;97.70;;;;;;4993801;28;20213;-79
2021/01/25 09:01:18;;;;;;;9.18;7.05;;;2.40;97.10;;;;;;5013058;28;20212;-78
2021/01/25 09:03:44;;;;;;;9.02;6.63;;;2.50;96.60;;;;;;5011614;28;20197;-79
2021/01/25 09:06:12;;;;;;;8.05;6.70;;;2.50;96.30;;;;;;5010737;28;20220;-78
2021/01/25 09:08:39;;;;;;;8.27;6.88;;;2.40;95.90;;;;;;5012569;28;20231;-78
2021/01/25 09:11:07;;;;;;;8.07;6.10;;;2.50;95.90;;;;;;5010970;28;20568;-78
2021/01/25 09:13:34;;;;;;;9.05;6.00;;;2.40;95.20;;;;;;5010496;28;20220;-78
2021/01/25 09:16:01;;;;;;;9.80;6.05;;;2.50;95.10;;;;;;5009210;28;20450;-78
2021/01/25 09:18:30;;;;;;;12.45;7.30;;;2.50;94.90;;;;;;5027909;28;20207;-76
2021/01/25 09:20:57;;;;;;;8.27;5.57;;;2.60;94.60;;;;;;5013032;28;20205;-78
2021/01/25 09:23:23;;;;;;;8.00;5.75;;;2.50;94.20;;;;;;5002847;28;20211;-76
2021/01/25 09:25:50;;;;;;;6.65;5.50;;;2.60;94.30;;;;;;5009638;28;20264;-79
2021/01/25 09:28:17;;;;;;;6.75;5.45;;;2.60;94.10;;;;;;5007442;28;20208;-80
2021/01/25 09:30:43;;;;;;;7.50;6.20;;;2.60;93.60;;;;;;5007185;28;20223;-79
2021/01/25 09:33:10;;;;;;;8.70;6.10;;;2.50;93.60;;;;;;5005618;28;20683;-78
2021/01/25 09:35:37;;;;;;;9.02;6.88;;;2.50;93.60;;;;;;5005306;28;20256;-78
2021/01/25 09:38:04;;;;;;;6.85;5.78;;;2.50;93.60;;;;;;5003499;28;20548;-79
2021/01/25 09:40:33;;;;;;;7.65;5.53;;;2.50;93.90;;;;;;5005417;28;20688;-78
2021/01/25 09:43:00;;;;;;;8.40;6.20;;;2.40;94.00;;;;;;5005169;28;20577;-78
2021/01/25 09:45:26;;;;;;;7.45;6.45;;;2.40;94.20;;;;;;5003886;28;20228;-77
2021/01/25 09:47:53;;;;;;;8.82;6.10;;;2.30;94.00;;;;;;5003956;28;20651;-79
2021/01/25 09:50:20;;;;;;;7.28;5.68;;;2.30;94.20;;;;;;5005470;28;20207;-78
2021/01/25 09:52:48;;;;;;;6.88;5.53;;;2.30;94.30;;;;;;5008990;28;20209;-80
2021/01/25 09:55:17;;;;;;;8.55;6.47;;;2.40;94.40;;;;;;5007124;28;20235;-81
2021/01/25 09:57:44;;;;;;;7.88;5.35;;;2.40;94.20;;;;;;4995253;28;20208;-80
2021/01/25 10:00:12;;;;;;;10.20;6.30;;;2.30;94.40;;;;;;4997515;28;20208;-82
2021/01/25 10:02:39;;;;;;;9.80;6.20;;;2.40;94.80;;;;;;5007887;28;20201;-80
2021/01/25 10:05:07;;;;;;;7.97;6.03;;;2.40;94.90;;;;;;5008072;28;20316;-82
2021/01/25 10:07:34;;;;;;;8.15;5.80;;;2.50;95.20;;;;;;5013740;28;20207;-78
2021/01/25 10:10:05;;;;;;;7.70;5.95;;;2.50;94.80;;;;;;5017935;28;20204;-79
2021/01/25 10:12:31;;;;;;;8.23;6.10;;;2.50;95.30;;;;;;5007497;28;20212;-81
2021/01/25 10:14:59;;;;;;;8.05;5.88;;;2.50;95.30;;;;;;5012119;28;20243;-81
2021/01/25 10:17:28;;;;;;;9.90;6.25;;;2.50;95.30;;;;;;5011855;28;20660;-80
2021/01/25 10:19:54;;;;;;;11.07;7.30;;;2.60;95.70;;;;;;5011907;28;20239;-80
2021/01/25 10:22:24;;;;;;;7.25;5.97;;;2.60;95.80;;;;;;5015972;28;20193;-81
2021/01/25 10:24:51;;;;;;;7.07;6.05;;;2.70;96.00;;;;;;5018080;28;20254;-80
2021/01/25 10:27:19;;;;;;;8.43;6.47;;;2.80;95.40;;;;;;5017840;28;20190;-80
2021/01/25 10:29:46;;;;;;;7.10;6.00;;;2.80;95.00;;;;;;5015814;28;20208;-83
2021/01/25 10:32:14;;;;;;;7.45;5.57;;;2.90;95.00;;;;;;5006663;28;20233;-82
2021/01/25 10:34:42;;;;;;;8.10;6.18;;;2.90;94.60;;;;;;5005129;28;20224;-82
2021/01/25 10:37:08;;;;;;;9.02;6.10;;;2.90;94.40;;;;;;5008115;28;20192;-81
2021/01/25 10:39:35;;;;;;;8.70;5.88;;;3.00;94.50;;;;;;5015893;28;20193;-82
2021/01/25 10:42:01;;;;;;;6.85;5.25;;;3.10;94.20;;;;;;5014635;28;20216;-82
2021/01/25 10:44:29;;;;;;;7.28;5.47;;;3.10;93.60;;;;;;5007760;28;20224;-81
2021/01/25 10:46:55;;;;;;;6.03;4.30;;;3.10;93.00;;;;;;5018046;28;20223;-78
2021/01/25 10:49:25;;;;;;;7.10;5.03;;;3.10;93.10;;;;;;5018337;28;20192;-78
2021/01/25 10:51:51;;;;;;;6.57;5.10;;;3.10;92.70;;;;;;5018002;28;20221;-78
2021/01/25 10:54:22;;;;;;;6.57;4.72;;;3.10;93.10;;;;;;5017756;28;20233;-78
2021/01/25 10:56:49;;;;;;;5.80;4.40;;;3.20;92.70;;;;;;5018208;28;20252;-77
2021/01/25 10:59:15;;;;;;;6.28;5.05;;;3.20;92.70;;;;;;5016867;28;20192;-78
2021/01/25 11:01:43;;;;;;;5.82;4.72;;;3.20;92.50;;;;;;5018069;28;20223;-79
2021/01/25 11:04:09;;;;;;;7.25;5.35;;;3.10;92.00;;;;;;5017583;28;20189;-80
2021/01/25 11:06:36;;;;;;;6.05;5.10;;;2.90;92.00;;;;;;5015400;28;20196;-82
2021/01/25 11:09:03;;;;;;;7.18;5.90;;;2.80;92.60;;;;;;5015582;28;20215;-82
2021/01/25 11:11:30;;;;;;;7.25;5.18;;;2.90;92.60;;;;;;5014562;28;20215;-81
2021/01/25 11:13:56;;;;;;;7.72;5.50;;;2.70;92.60;;;;;;5010002;28;20564;-84
2021/01/25 11:16:25;;;;;;;9.45;5.10;;;2.70;93.70;;;;;;5005062;28;20230;-82
2021/01/25 11:18:52;;;;;;;8.23;6.40;;;2.80;94.20;;;;;;5008228;28;20296;-81
2021/01/25 11:21:19;;;;;;;8.93;6.30;;;2.70;94.30;;;;;;5008546;28;20197;-81
2021/01/25 11:23:46;;;;;;;9.38;7.13;;;2.70;94.60;;;;;;5012554;28;20230;-81
2021/01/25 11:26:13;;;;;;;7.78;5.65;;;2.70;94.80;;;;;;5013047;28;20236;-80
2021/01/25 11:28:39;;;;;;;8.82;6.05;;;2.70;95.20;;;;;;5014541;28;20235;-81
2021/01/25 11:31:07;;;;;;;8.07;5.90;;;2.60;95.40;;;;;;5013341;28;20223;-80
2021/01/25 11:33:33;;;;;;;7.70;5.80;;;2.60;95.40;;;;;;5014052;28;20228;-81
2021/01/25 11:36:04;;;;;;;6.68;5.28;;;2.70;95.70;;;;;;5023396;23;20282;-80
2021/01/25 11:38:31;;;;;;;7.13;5.28;;;2.70;95.70;;;;;;5006213;28;20208;-79
2021/01/25 11:40:57;;;;;;;8.10;6.00;;;2.60;95.30;;;;;;5009325;28;20243;-79
2021/01/25 11:43:24;;;;;;;7.65;5.70;;;2.60;95.80;;;;;;5001236;28;20522;-80
2021/01/25 11:45:50;;;;;;;6.47;5.65;;;2.50;95.90;;;;;;4998651;28;20316;-80
2021/01/25 11:48:18;;;;;;;7.10;5.50;;;2.60;96.00;;;;;;5000493;28;20263;-80
2021/01/25 11:50:44;;;;;;;7.97;5.40;;;2.60;96.00;;;;;;4996649;28;20267;-80
2021/01/25 11:53:11;;;;;;;6.40;5.30;;;2.60;96.00;;;;;;4998319;28;20259;-79
2021/01/25 11:55:38;;;;;;;7.53;5.50;;;2.60;96.00;;;;;;5003062;28;20774;-80
2021/01/25 11:58:04;;;;;;;6.93;6.20;;;2.60;96.00;;;;;;5007289;28;20247;-80
2021/01/25 12:00:31;;;;;;;10.20;6.18;;;2.60;96.00;;;;;;5008424;28;20201;-80
2021/01/25 12:02:57;;;;;;;7.35;5.45;;;2.70;96.10;;;;;;5005481;28;20295;-79
2021/01/25 12:05:24;;;;;;;6.68;5.97;;;2.80;96.40;;;;;;5008793;28;20204;-79
2021/01/25 12:07:51;;;;;;;7.47;6.00;;;2.80;96.10;;;;;;5010014;28;20247;-81
2021/01/25 12:10:18;;;;;;;6.30;5.53;;;2.90;96.10;;;;;;5003638;28;20212;-80
2021/01/25 12:12:45;;;;;;;7.20;5.63;;;2.90;96.10;;;;;;5007947;28;20211;-79
2021/01/25 12:15:12;;;;;;;7.80;5.57;;;3.00;96.10;;;;;;5009731;28;20278;-79
2021/01/25 12:17:39;;;;;;;9.30;6.57;;;3.10;96.20;;;;;;5009612;28;20208;-80
2021/01/25 12:20:07;;;;;;;9.20;5.90;;;3.20;96.10;;;;;;5015723;28;20533;-79
2021/01/25 12:22:33;;;;;;;8.45;6.10;;;3.00;95.00;;;;;;5014981;28;20200;-79
2021/01/25 12:25:00;;;;;;;6.43;5.55;;;3.00;95.40;;;;;;5011834;28;20231;-80
2021/01/25 12:27:27;;;;;;;8.60;6.50;;;3.10;95.20;;;;;;5009975;28;20259;-76
2021/01/25 12:29:54;;;;;;;8.15;6.05;;;3.20;95.20;;;;;;5010095;28;20208;-77
2021/01/25 12:32:20;;;;;;;6.35;5.05;;;3.20;94.80;;;;;;5011309;28;20200;-77
2021/01/25 12:34:50;;;;;;;6.18;5.57;;;3.30;94.70;;;;;;5005268;28;20628;-79
2021/01/25 12:37:16;;;;;;;7.13;5.13;;;3.20;94.20;;;;;;5008875;28;20240;-78
2021/01/25 12:39:43;;;;;;;6.25;5.53;;;3.10;93.70;;;;;;5011793;28;20300;-77
2021/01/25 12:42:10;;;;;;;7.13;5.30;;;3.10;93.70;;;;;;5011618;28;20232;-78
2021/01/25 12:44:37;;;;;;;6.70;6.00;;;3.10;93.70;;;;;;5012208;28;20204;-78
2021/01/25 12:47:04;;;;;;;10.90;6.90;;;3.00;93.90;;;;;;5016221;28;20244;-77
2021/01/25 12:49:30;;;;;;;8.10;5.95;;;3.00;94.30;;;;;;5017063;28;20212;-75
2021/01/25 12:51:57;;;;;;;7.60;6.45;;;3.10;94.30;;;;;;5017214;28;20600;-77
2021/01/25 12:54:23;;;;;;;8.63;5.93;;;3.10;94.30;;;;;;5017514;28;20230;-77
2021/01/25 12:56:50;;;;;;;8.55;5.85;;;3.20;94.30;;;;;;5017057;28;20224;-75
2021/01/25 12:59:18;;;;;;;6.82;6.13;;;3.30;94.50;;;;;;5015909;28;20684;-76